createdAt,value
2023-03-02T00:01:52.676Z,101149.09
2023-03-02T00:04:23.286Z,101143.13
2023-03-02T00:06:51.822Z,101140.22
2023-03-02T00:09:18.401Z,101141.31
2023-03-02T00:11:45.719Z,101145.31
2023-03-02T00:14:12.215Z,101145.31
2023-03-02T00:16:40.159Z,101132.56
2023-03-02T00:19:06.570Z,101138.41
2023-03-02T00:21:33.031Z,101135.84
2023-03-02T00:23:59.518Z,101133.28
2023-03-02T00:26:25.985Z,101140.94
2023-03-02T00:28:52.389Z,101132.19
2023-03-02T00:31:19.615Z,101129.28
2023-03-02T00:33:46.188Z,101143.09
2023-03-02T00:36:17.659Z,101138.41
2023-03-02T00:38:44.243Z,101140.94
2023-03-02T00:41:12.572Z,101144.00
2023-03-02T00:43:39.494Z,101132.19
2023-03-02T00:46:10.963Z,101142.41
2023-03-02T00:48:37.484Z,101137.09
2023-03-02T00:51:04.406Z,101126.91
2023-03-02T00:53:31.009Z,101126.53
2023-03-02T00:55:57.502Z,101123.81
2023-03-02T00:58:23.960Z,101116.16
2023-03-02T01:00:50.407Z,101122.34
2023-03-02T01:03:16.889Z,101112.53
2023-03-02T01:05:43.528Z,101118.69
2023-03-02T01:08:09.991Z,101115.44
2023-03-02T01:10:37.496Z,101103.94
2023-03-02T01:13:04.599Z,101113.06
2023-03-02T01:15:31.013Z,101113.59
2023-03-02T01:18:22.041Z,101109.59
2023-03-02T01:20:48.468Z,101097.94
2023-03-02T01:23:14.880Z,101098.28
2023-03-02T01:25:41.315Z,101096.47
2023-03-02T01:28:07.742Z,101094.69
2023-03-02T01:30:34.200Z,101093.41
2023-03-02T01:33:00.651Z,101090.09
2023-03-02T01:35:27.109Z,101091.03
2023-03-02T01:37:53.604Z,101084.09
2023-03-02T01:40:20.141Z,101082.63
2023-03-02T01:42:51.329Z,101090.66
2023-03-02T01:45:56.149Z,101079.53
2023-03-02T01:48:29.857Z,101082.25
2023-03-02T01:50:57.464Z,101073.34
2023-03-02T01:53:26.305Z,101079.72
2023-03-02T01:55:53.280Z,101064.03
2023-03-02T01:58:20.896Z,101067.13
2023-03-02T02:00:47.935Z,101067.31
2023-03-02T02:03:21.057Z,101058.94
2023-03-02T02:06:18.039Z,101064.03
2023-03-02T02:08:46.162Z,101061.50
2023-03-02T02:11:13.351Z,101061.13
2023-03-02T02:13:40.134Z,101061.13
2023-03-02T02:16:07.209Z,101065.13
2023-03-02T02:18:40.112Z,101061.16
2023-03-02T02:21:08.322Z,101061.50
2023-03-02T02:23:37.502Z,101064.22
2023-03-02T02:26:28.902Z,101059.13
2023-03-02T02:28:58.180Z,101066.22
2023-03-02T02:31:42.238Z,101064.44
2023-03-02T02:34:41.136Z,101057.69
2023-03-02T02:37:14.278Z,101064.78
2023-03-02T02:39:45.866Z,101058.97
2023-03-02T02:42:18.482Z,101061.88
2023-03-02T02:44:45.000Z,101053.13
2023-03-02T02:47:18.318Z,101057.47
2023-03-02T02:49:46.834Z,101057.13
2023-03-02T02:52:17.506Z,101055.47
2023-03-02T02:54:46.816Z,101045.81
2023-03-02T02:57:17.694Z,101038.16
2023-03-02T02:59:55.996Z,101038.53
2023-03-02T03:02:25.160Z,101047.66
2023-03-02T03:04:52.328Z,101039.84
2023-03-02T03:07:24.720Z,101040.94
2023-03-02T03:10:01.474Z,101044.75
2023-03-02T03:12:31.012Z,101045.84
2023-03-02T03:14:58.818Z,101046.25
2023-03-02T03:17:25.297Z,101043.69
2023-03-02T03:19:51.723Z,101050.63
2023-03-02T03:22:18.189Z,101051.72
2023-03-02T03:24:46.037Z,101047.31
2023-03-02T03:27:15.570Z,101051.31
2023-03-02T03:29:45.577Z,101048.25
2023-03-02T03:32:12.037Z,101049.13
2023-03-02T03:34:40.598Z,101041.69
2023-03-02T03:37:13.019Z,101053.69
2023-03-02T03:39:39.669Z,101042.91
2023-03-02T03:42:06.420Z,101050.03
2023-03-02T03:44:32.984Z,101056.59
2023-03-02T03:46:59.651Z,101057.13
2023-03-02T03:49:26.933Z,101053.69
2023-03-02T03:51:53.474Z,101058.94
2023-03-02T03:54:20.183Z,101057.09
2023-03-02T03:56:49.835Z,101060.97
2023-03-02T03:59:20.557Z,101060.97
2023-03-02T04:01:56.176Z,101057.66
2023-03-02T04:04:30.276Z,101056.19
2023-03-02T04:06:57.234Z,101050.19
2023-03-02T04:09:24.764Z,101047.09
2023-03-02T04:11:54.185Z,101046.19
2023-03-02T04:14:22.565Z,101047.31
2023-03-02T04:16:49.330Z,101046.41
2023-03-02T04:19:17.510Z,101044.03
2023-03-02T04:21:47.514Z,101048.56
2023-03-02T04:24:14.694Z,101049.66
2023-03-02T04:26:42.433Z,101049.31
2023-03-02T04:29:10.295Z,101049.66
2023-03-02T04:31:36.804Z,101049.84
2023-03-02T04:34:06.565Z,101039.09
2023-03-02T04:36:36.540Z,101044.38
2023-03-02T04:39:05.172Z,101042.75
2023-03-02T04:41:32.104Z,101054.41
2023-03-02T04:43:58.580Z,101046.63
2023-03-02T04:46:26.757Z,101047.00
2023-03-02T04:48:55.040Z,101047.34
2023-03-02T04:51:34.940Z,101041.84
2023-03-02T04:54:07.341Z,101041.84
2023-03-02T04:56:34.578Z,101038.59
2023-03-02T04:59:01.225Z,101042.97
2023-03-02T05:01:27.784Z,101047.16
2023-03-02T05:03:54.292Z,101047.53
2023-03-02T05:06:21.824Z,101043.69
2023-03-02T05:08:48.564Z,101038.81
2023-03-02T05:11:21.979Z,101038.97
2023-03-02T05:13:53.535Z,101036.06
2023-03-02T05:16:20.683Z,101037.34
2023-03-02T05:18:48.089Z,101042.59
2023-03-02T05:21:15.343Z,101047.88
2023-03-02T05:23:42.792Z,101045.88
2023-03-02T05:26:10.088Z,101049.72
2023-03-02T05:28:36.948Z,101042.63
2023-03-02T05:31:03.808Z,101042.25
2023-03-02T05:33:30.879Z,101053.00
2023-03-02T05:35:57.631Z,101042.78
2023-03-02T05:38:24.138Z,101051.16
2023-03-02T05:40:50.631Z,101051.72
2023-03-02T05:43:20.077Z,101049.72
2023-03-02T05:45:46.606Z,101048.44
2023-03-02T05:48:14.227Z,101044.81
2023-03-02T05:50:41.302Z,101048.09
2023-03-02T05:53:07.861Z,101057.34
2023-03-02T05:55:37.907Z,101056.09
2023-03-02T05:58:06.666Z,101057.91
2023-03-02T06:00:33.210Z,101060.28
2023-03-02T06:02:59.796Z,101062.09
2023-03-02T06:05:26.334Z,101060.13
2023-03-02T06:07:52.820Z,101066.69
2023-03-02T06:10:19.380Z,101067.03
2023-03-02T06:12:45.802Z,101063.03
2023-03-02T06:15:12.285Z,101070.66
2023-03-02T06:17:38.849Z,101066.66
2023-03-02T06:20:10.903Z,101066.66
2023-03-02T06:22:43.041Z,101068.09
2023-03-02T06:25:11.762Z,101070.84
2023-03-02T06:27:39.425Z,101064.47
2023-03-02T06:30:07.472Z,101068.47
2023-03-02T06:32:35.249Z,101065.91
2023-03-02T06:35:03.217Z,101068.09
2023-03-02T06:37:31.054Z,101065.19
2023-03-02T06:39:58.403Z,101069.59
2023-03-02T06:42:26.633Z,101070.28
2023-03-02T06:44:54.937Z,101065.34
2023-03-02T06:47:22.241Z,101069.19
2023-03-02T06:49:49.213Z,101069.53
2023-03-02T06:52:16.319Z,101069.50
2023-03-02T06:54:42.956Z,101068.81
2023-03-02T06:57:09.493Z,101072.59
2023-03-02T06:59:35.992Z,101071.31
2023-03-02T07:02:02.636Z,101070.91
2023-03-02T07:04:29.153Z,101082.22
2023-03-02T07:06:55.906Z,101084.06
2023-03-02T07:09:23.112Z,101074.19
2023-03-02T07:11:49.650Z,101080.56
2023-03-02T07:14:16.194Z,101084.00
2023-03-02T07:16:42.789Z,101089.09
2023-03-02T07:19:13.744Z,101088.91
2023-03-02T07:21:40.942Z,101090.00
2023-03-02T07:24:07.886Z,101094.53
2023-03-02T07:26:34.450Z,101094.16
2023-03-02T07:29:01.020Z,101084.34
2023-03-02T07:31:28.282Z,101095.97
2023-03-02T07:33:54.776Z,101098.72
2023-03-02T07:36:21.326Z,101097.22
2023-03-02T07:38:48.642Z,101099.94
2023-03-02T07:41:17.097Z,101103.22
2023-03-02T07:43:44.139Z,101111.97
2023-03-02T07:46:44.980Z,101107.72
2023-03-02T07:49:11.425Z,101109.34
2023-03-02T07:51:37.892Z,101105.50
2023-03-02T07:54:05.053Z,101104.25
2023-03-02T07:56:32.010Z,101110.06
2023-03-02T07:58:58.621Z,101104.00
2023-03-02T08:01:25.362Z,101100.88
2023-03-02T08:03:52.130Z,101106.50
2023-03-02T08:06:18.839Z,101104.13
2023-03-02T08:08:45.695Z,101105.00
2023-03-02T08:11:15.220Z,101103.28
2023-03-02T08:13:42.562Z,101108.66
2023-03-02T08:16:11.476Z,101100.34
2023-03-02T08:18:38.805Z,101094.28
2023-03-02T08:21:12.350Z,101085.66
2023-03-02T08:23:38.973Z,101087.56
2023-03-02T08:26:05.770Z,101093.69
2023-03-02T08:28:32.371Z,101084.31
2023-03-02T08:30:59.704Z,101083.44
2023-03-02T08:33:27.958Z,101087.44
2023-03-02T08:35:57.395Z,101087.44
2023-03-02T08:38:24.462Z,101082.75
2023-03-02T08:40:52.481Z,101083.19
2023-03-02T08:43:20.235Z,101085.84
2023-03-02T08:45:54.445Z,101081.78
2023-03-02T08:48:22.331Z,101078.06
2023-03-02T08:51:00.730Z,101084.50
2023-03-02T08:53:29.724Z,101079.66
2023-03-02T08:55:56.292Z,101086.16
2023-03-02T08:58:22.871Z,101079.56
2023-03-02T09:00:49.529Z,101078.66
2023-03-02T09:03:16.366Z,101085.00
2023-03-02T09:05:43.517Z,101088.53
2023-03-02T09:08:11.035Z,101088.53
2023-03-02T09:10:38.074Z,101090.13
2023-03-02T09:13:08.074Z,101092.25
2023-03-02T09:15:35.059Z,101095.50
2023-03-02T09:18:01.589Z,101096.88
2023-03-02T09:20:28.090Z,101096.88
2023-03-02T09:22:54.582Z,101086.06
2023-03-02T09:25:21.118Z,101095.47
2023-03-02T09:27:47.663Z,101094.47
2023-03-02T09:30:15.431Z,101091.00
2023-03-02T09:32:42.412Z,101091.94
2023-03-02T09:35:09.035Z,101098.78
2023-03-02T09:37:38.643Z,101090.50
2023-03-02T09:40:15.515Z,101095.22
2023-03-02T09:42:53.832Z,101097.19
2023-03-02T09:45:38.481Z,101099.75
2023-03-02T09:48:38.175Z,101107.28
2023-03-02T09:51:20.236Z,101109.41
2023-03-02T09:53:56.094Z,101106.13
2023-03-02T09:56:22.758Z,101100.16
2023-03-02T09:59:04.274Z,101104.84
2023-03-02T10:01:41.726Z,101105.59
2023-03-02T10:04:30.347Z,101102.28
2023-03-02T10:07:12.762Z,101107.75
2023-03-02T10:09:39.872Z,101102.19
2023-03-02T10:16:03.128Z,101091.16
2023-03-02T10:18:51.038Z,101083.88
2023-03-02T10:21:39.025Z,101087.28
2023-03-02T10:24:30.895Z,101092.41
2023-03-02T10:27:16.072Z,101093.59
2023-03-02T10:29:54.407Z,101092.28
2023-03-02T10:32:23.583Z,101093.81
2023-03-02T10:34:52.172Z,101095.03
2023-03-02T10:37:22.867Z,101100.50
2023-03-02T10:39:49.697Z,101099.94
2023-03-02T10:42:28.752Z,101094.78
2023-03-02T10:45:28.316Z,101089.66
2023-03-02T10:48:10.295Z,101099.94
2023-03-02T10:50:37.537Z,101098.38
2023-03-02T10:53:08.439Z,101096.00
2023-03-02T10:55:35.464Z,101097.47
2023-03-02T10:58:05.806Z,101090.53
2023-03-02T11:00:34.618Z,101089.63
2023-03-02T11:03:04.060Z,101089.03
2023-03-02T11:05:36.392Z,101090.09
2023-03-02T11:08:09.752Z,101086.75
2023-03-02T11:10:39.550Z,101092.97
2023-03-02T11:13:28.043Z,101086.75
2023-03-02T11:16:16.725Z,101089.75
2023-03-02T11:18:49.744Z,101080.25
2023-03-02T11:21:23.851Z,101088.97
2023-03-02T11:23:57.014Z,101076.59
2023-03-02T11:26:27.769Z,101087.66
2023-03-02T11:29:03.866Z,101076.47
2023-03-02T11:31:52.472Z,101072.41
2023-03-02T11:34:22.025Z,101072.13
2023-03-02T11:36:59.845Z,101075.75
2023-03-02T11:39:37.458Z,101072.00
2023-03-02T11:42:20.456Z,101070.31
2023-03-02T11:44:48.472Z,101064.56
2023-03-02T11:47:16.356Z,101063.50
2023-03-02T11:49:48.915Z,101065.34
2023-03-02T11:52:20.401Z,101062.31
2023-03-02T11:54:54.055Z,101063.06
2023-03-02T11:57:23.200Z,101062.19
2023-03-02T11:59:52.126Z,101057.50
2023-03-02T12:02:19.479Z,101058.84
2023-03-02T12:04:47.750Z,101057.22
2023-03-02T12:07:23.914Z,101053.56
2023-03-02T12:10:28.392Z,101055.22
2023-03-02T12:13:14.888Z,101053.41
2023-03-02T12:15:45.425Z,101060.81
2023-03-02T12:18:43.238Z,101050.38
2023-03-02T12:21:09.629Z,101048.59
2023-03-02T12:23:53.101Z,101047.53
2023-03-02T12:26:19.537Z,101042.41
2023-03-02T12:29:07.063Z,101034.38
2023-03-02T12:31:50.189Z,101039.38
2023-03-02T12:34:42.965Z,101034.38
2023-03-02T12:37:25.571Z,101030.28
2023-03-02T12:40:10.771Z,101032.25
2023-03-02T12:42:47.541Z,101038.88
2023-03-02T12:45:13.974Z,101027.88
2023-03-02T12:47:47.085Z,101022.91
2023-03-02T12:50:20.662Z,101017.19
2023-03-02T12:53:00.882Z,101025.34
2023-03-02T12:55:27.912Z,101017.31
2023-03-02T12:58:01.159Z,101020.19
2023-03-02T13:00:31.033Z,101014.47
2023-03-02T13:02:59.708Z,101009.16
2023-03-02T13:05:32.300Z,101015.81
2023-03-02T13:08:17.556Z,101007.81
2023-03-02T13:10:49.943Z,101004.19
2023-03-02T13:13:18.038Z,101009.59
2023-03-02T13:15:55.266Z,100999.50
2023-03-02T13:18:24.120Z,100997.69
2023-03-02T13:20:51.517Z,100993.59
2023-03-02T13:23:19.018Z,101002.69
2023-03-02T13:26:41.059Z,100995.13
2023-03-02T13:29:19.194Z,100994.06
2023-03-02T13:31:48.488Z,100994.22
2023-03-02T13:34:23.714Z,100991.78
2023-03-02T13:36:51.436Z,100989.97
2023-03-02T13:39:26.000Z,100988.75
2023-03-02T13:41:55.937Z,100989.66
2023-03-02T13:44:34.314Z,100984.84
2023-03-02T13:47:01.988Z,100978.31
2023-03-02T13:49:32.482Z,100979.53
2023-03-02T13:52:08.302Z,100983.59
2023-03-02T13:54:36.889Z,100986.91
2023-03-02T13:57:05.184Z,100978.47
2023-03-02T13:59:36.361Z,100977.84
2023-03-02T14:02:03.353Z,100969.97
2023-03-02T14:04:29.942Z,100965.16
2023-03-02T14:06:56.540Z,100968.16
2023-03-02T14:09:23.079Z,100966.78
2023-03-02T14:11:55.054Z,100963.59
2023-03-02T14:14:24.921Z,100957.53
2023-03-02T14:16:51.719Z,100960.28
2023-03-02T14:19:18.682Z,100959.66
2023-03-02T14:21:46.236Z,100954.53
2023-03-02T14:24:14.370Z,100959.31
2023-03-02T14:26:47.290Z,100959.31
2023-03-02T14:29:22.671Z,100958.16
2023-03-02T14:31:49.286Z,100949.84
2023-03-02T14:34:17.058Z,100952.25
2023-03-02T14:36:46.098Z,100951.78
2023-03-02T14:39:22.807Z,100953.63
2023-03-02T14:41:54.171Z,100949.69
2023-03-02T14:44:21.054Z,100945.13
2023-03-02T14:46:47.557Z,100947.25
2023-03-02T14:49:14.155Z,100944.66
2023-03-02T14:51:41.845Z,100939.25
2023-03-02T14:54:14.953Z,100936.97
2023-03-02T14:56:43.051Z,100937.56
2023-03-02T14:59:13.840Z,100937.56
2023-03-02T15:01:41.796Z,100931.81
2023-03-02T15:04:08.297Z,100938.19
2023-03-02T15:06:38.124Z,100926.69
2023-03-02T15:09:04.845Z,100924.25
2023-03-02T15:11:31.768Z,100923.66
2023-03-02T15:13:58.952Z,100920.75
2023-03-02T15:16:25.656Z,100922.13
2023-03-02T15:18:53.260Z,100918.78
2023-03-02T15:21:24.324Z,100920.31
2023-03-02T15:23:51.097Z,100923.22
2023-03-02T15:26:17.915Z,100914.75
2023-03-02T15:28:46.900Z,100924.75
2023-03-02T15:31:16.185Z,100925.50
2023-03-02T15:33:45.160Z,100919.34
2023-03-02T15:36:12.542Z,100925.06
2023-03-02T15:38:39.037Z,100911.63
2023-03-02T15:41:12.824Z,100915.84
2023-03-02T15:43:39.620Z,100914.03
2023-03-02T15:46:09.123Z,100909.19
2023-03-02T15:48:36.732Z,100912.56
2023-03-02T15:51:06.464Z,100904.84
2023-03-02T15:53:37.443Z,100911.66
2023-03-02T15:56:09.438Z,100908.94
2023-03-02T15:58:35.845Z,100909.53
2023-03-02T16:01:12.344Z,100911.22
2023-03-02T16:03:38.864Z,100912.84
2023-03-02T16:06:05.771Z,100916.47
2023-03-02T16:08:32.251Z,100918.94
2023-03-02T16:11:00.789Z,100921.34
2023-03-02T16:13:28.007Z,100919.53
2023-03-02T16:15:54.496Z,100926.03
2023-03-02T16:18:20.958Z,100925.88
2023-03-02T16:20:47.646Z,100928.00
2023-03-02T16:23:16.033Z,100919.13
2023-03-02T16:25:44.122Z,100935.16
2023-03-02T16:28:11.564Z,100935.88
2023-03-02T16:30:39.402Z,100938.00
2023-03-02T16:33:09.185Z,100934.72
2023-03-02T16:35:37.069Z,100941.34
2023-03-02T16:38:04.685Z,100933.50
2023-03-02T16:40:31.962Z,100937.28
2023-03-02T16:42:58.677Z,100935.78
2023-03-02T16:45:26.925Z,100942.75
2023-03-02T16:47:53.762Z,100938.50
2023-03-02T16:50:20.763Z,100941.22
2023-03-02T16:52:47.179Z,100935.63
2023-03-02T16:55:17.506Z,100940.00
2023-03-02T16:57:44.583Z,100933.50
2023-03-02T17:00:18.069Z,100938.78
2023-03-02T17:02:44.910Z,100939.25
2023-03-02T17:05:13.971Z,100939.69
2023-03-02T17:07:41.922Z,100943.75
2023-03-02T17:10:12.172Z,100943.00
2023-03-02T17:12:38.821Z,100941.94
2023-03-02T17:15:05.908Z,100949.28
2023-03-02T17:17:32.556Z,100940.94
2023-03-02T17:19:59.093Z,100945.78
2023-03-02T17:22:25.708Z,100953.91
2023-03-02T17:24:52.327Z,100957.03
2023-03-02T17:27:24.926Z,100953.28
2023-03-02T17:29:52.274Z,100959.59
2023-03-02T17:32:19.023Z,100966.22
2023-03-02T17:34:46.874Z,100967.88
2023-03-02T17:37:14.222Z,100970.28
2023-03-02T17:39:40.650Z,100974.03
2023-03-02T17:42:07.316Z,100973.75
2023-03-02T17:44:34.595Z,100979.03
2023-03-02T17:47:05.279Z,100973.03
2023-03-02T17:49:32.000Z,100972.53
2023-03-02T17:51:58.433Z,100967.13
2023-03-02T17:54:24.957Z,100978.88
2023-03-02T17:56:51.437Z,100981.84
2023-03-02T17:59:18.195Z,100981.69
2023-03-02T18:01:44.694Z,100989.63
2023-03-02T18:04:11.221Z,100994.69
2023-03-02T18:06:37.689Z,100991.06
2023-03-02T18:09:04.242Z,100994.38
2023-03-02T18:11:30.761Z,100996.63
2023-03-02T18:13:58.146Z,100996.28
2023-03-02T18:16:27.853Z,101004.84
2023-03-02T18:18:54.703Z,101005.78
2023-03-02T18:21:22.004Z,101005.56
2023-03-02T18:23:48.755Z,101002.84
2023-03-02T18:26:15.815Z,101005.22
2023-03-02T18:28:42.690Z,101009.13
2023-03-02T18:31:09.951Z,101005.75
2023-03-02T18:33:36.438Z,101006.50
2023-03-02T18:36:05.422Z,101009.38
2023-03-02T18:38:33.629Z,101008.31
2023-03-02T18:41:03.145Z,101015.41
2023-03-02T18:43:32.571Z,101016.06
2023-03-02T18:45:59.099Z,101009.47
2023-03-02T18:48:25.611Z,101011.84
2023-03-02T18:50:52.250Z,101014.56
2023-03-02T18:53:18.838Z,101012.00
2023-03-02T18:55:45.333Z,101011.53
2023-03-02T18:58:18.724Z,101006.09
2023-03-02T19:00:46.348Z,101008.22
2023-03-02T19:03:15.224Z,101006.72
2023-03-02T19:05:41.951Z,101017.66
2023-03-02T19:08:08.666Z,101016.88
2023-03-02T19:10:37.005Z,101020.44
2023-03-02T19:13:03.576Z,101017.06
2023-03-02T19:15:32.926Z,101025.66
2023-03-02T19:17:59.404Z,101026.09
2023-03-02T19:20:27.164Z,101025.06
2023-03-02T19:22:55.036Z,101026.09
2023-03-02T19:25:21.513Z,101021.88
2023-03-02T19:27:48.273Z,101025.06
2023-03-02T19:30:20.062Z,101030.84
2023-03-02T19:32:46.861Z,101033.91
2023-03-02T19:35:17.847Z,101034.66
2023-03-02T19:37:44.916Z,101032.81
2023-03-02T19:40:13.679Z,101036.31
2023-03-02T19:42:40.719Z,101041.09
2023-03-02T19:45:08.728Z,101038.31
2023-03-02T19:47:35.233Z,101044.72
2023-03-02T19:50:01.686Z,101047.38
2023-03-02T19:52:28.128Z,101046.13
2023-03-02T19:54:54.558Z,101046.38
2023-03-02T19:57:21.118Z,101042.47
2023-03-02T19:59:47.569Z,101043.56
2023-03-02T20:02:15.024Z,101057.31
2023-03-02T20:04:41.638Z,101050.09
2023-03-02T20:07:08.086Z,101052.16
2023-03-02T20:09:34.734Z,101045.03
2023-03-02T20:12:02.580Z,101044.13
2023-03-02T20:14:34.210Z,101041.81
2023-03-02T20:17:02.334Z,101040.47
2023-03-02T20:19:29.105Z,101040.88
2023-03-02T20:21:55.633Z,101037.16
2023-03-02T20:24:22.425Z,101052.69
2023-03-02T20:26:49.294Z,101048.03
2023-03-02T20:29:16.758Z,101050.91
2023-03-02T20:31:43.745Z,101061.00
2023-03-02T20:34:12.449Z,101058.06
2023-03-02T20:36:39.032Z,101064.63
2023-03-02T20:39:10.902Z,101066.63
2023-03-02T20:41:38.267Z,101064.28
2023-03-02T20:44:05.498Z,101067.97
2023-03-02T20:46:37.515Z,101064.34
2023-03-02T20:49:06.038Z,101062.53
2023-03-02T20:51:32.591Z,101075.88
2023-03-02T20:53:59.438Z,101069.13
2023-03-02T20:56:25.971Z,101064.38
2023-03-02T20:58:52.594Z,101068.22
2023-03-02T21:01:20.753Z,101071.66
2023-03-02T21:03:47.574Z,101074.22
2023-03-02T21:06:15.309Z,101074.41
2023-03-02T21:08:43.410Z,101075.44
2023-03-02T21:11:15.661Z,101074.88
2023-03-02T21:13:45.850Z,101074.22
2023-03-02T21:16:18.553Z,101073.28
2023-03-02T21:18:45.110Z,101074.59
2023-03-02T21:21:11.680Z,101080.44
2023-03-02T21:23:38.286Z,101078.84
2023-03-02T21:26:04.972Z,101082.13
2023-03-02T21:28:31.516Z,101081.78
2023-03-02T21:30:58.024Z,101080.63
2023-03-02T21:33:24.584Z,101078.09
2023-03-02T21:35:51.121Z,101075.69
2023-03-02T21:38:17.627Z,101071.69
2023-03-02T21:40:46.012Z,101077.78
2023-03-02T21:43:15.272Z,101076.16
2023-03-02T21:45:42.086Z,101077.13
2023-03-02T21:48:08.838Z,101078.38
2023-03-02T21:50:37.909Z,101074.91
2023-03-02T21:53:05.240Z,101070.13
2023-03-02T21:55:32.364Z,101074.81
2023-03-02T21:57:59.502Z,101077.34
2023-03-02T22:00:32.690Z,101071.50
2023-03-02T22:02:59.813Z,101069.03
2023-03-02T22:05:27.092Z,101071.59
2023-03-02T22:07:53.905Z,101064.28
2023-03-02T22:10:29.599Z,101062.88
2023-03-02T22:13:10.252Z,101062.88
2023-03-02T22:15:36.677Z,101069.47
2023-03-02T22:18:12.789Z,101064.75
2023-03-02T22:20:42.681Z,101069.88
2023-03-02T22:23:18.166Z,101063.69
2023-03-02T22:25:44.884Z,101066.91
2023-03-02T22:28:23.920Z,101064.75
2023-03-02T22:30:51.614Z,101068.06
2023-03-02T22:33:21.062Z,101068.63
2023-03-02T22:35:49.037Z,101070.63
2023-03-02T22:38:23.904Z,101058.81
2023-03-02T22:40:50.938Z,101063.72
2023-03-02T22:43:25.562Z,101066.47
2023-03-02T22:45:54.365Z,101066.63
2023-03-02T22:48:22.797Z,101058.44
2023-03-02T22:50:50.311Z,101054.78
2023-03-02T22:53:30.359Z,101051.88
2023-03-02T22:56:02.214Z,101054.41
2023-03-02T22:58:48.413Z,101061.50
2023-03-02T23:01:22.522Z,101049.66
2023-03-02T23:03:51.780Z,101051.66
2023-03-02T23:06:30.960Z,101046.59
2023-03-02T23:09:01.026Z,101041.50
2023-03-02T23:11:28.859Z,101039.31
2023-03-02T23:13:55.796Z,101046.66
2023-03-02T23:16:24.016Z,101040.81
2023-03-02T23:18:54.857Z,101043.38
2023-03-02T23:21:38.604Z,101030.06
2023-03-02T23:24:07.441Z,101036.41
2023-03-02T23:26:34.629Z,101033.66
2023-03-02T23:29:01.206Z,101041.66
2023-03-02T23:31:27.800Z,101037.00
2023-03-02T23:33:54.439Z,101038.28
2023-03-02T23:36:21.028Z,101037.91
2023-03-02T23:38:50.930Z,101031.03
2023-03-02T23:41:18.224Z,101035.75
2023-03-02T23:43:44.888Z,101022.97
2023-03-02T23:46:14.027Z,101038.44
2023-03-02T23:48:41.751Z,101031.50
2023-03-02T23:51:11.530Z,101024.75
2023-03-02T23:53:38.022Z,101026.44
2023-03-02T23:56:04.709Z,101030.28
2023-03-02T23:58:31.191Z,101029.91
